Time;durP1;ratioP1;P1;durP2;ratioP2;P2;SDS_P1;SDS_P2;PMS_P1;PMS_P2;Temp;Humidity;BMP_temperature;BMP_pressure;BME280_temperature;BME280_humidity;BME280_pressure;Samples;Min_cycle;Max_cycle;Signal;HPM_P1;HPM_P2
2021/03/15 00:02:15;;;;;;;31.80;20.60;;;;;;;4.01;68.38;95772.38;1752443;81;21284;-83
2021/03/15 00:04:41;;;;;;;30.97;18.92;;;;;;;4.01;68.37;95775.75;1752472;82;21102;-83
2021/03/15 00:07:07;;;;;;;32.88;19.65;;;;;;;4.00;68.37;95772.86;1752549;82;21102;-82
2021/03/15 00:09:33;;;;;;;27.67;17.32;;;;;;;3.99;68.39;95775.59;1751951;82;21134;-83
2021/03/15 00:11:59;;;;;;;28.83;17.20;;;;;;;3.99;68.41;95781.53;1752430;82;21153;-82
2021/03/15 00:14:25;;;;;;;27.35;17.17;;;;;;;4.02;68.38;95779.93;1752560;82;21130;-82
2021/03/15 00:16:51;;;;;;;25.60;17.02;;;;;;;4.08;68.43;95778.52;1752408;82;21102;-82
2021/03/15 00:19:17;;;;;;;30.72;17.52;;;;;;;4.11;68.36;95779.48;1752444;81;21126;-82
2021/03/15 00:21:43;;;;;;;28.07;18.60;;;;;;;4.13;68.48;95777.08;1752520;81;21145;-83
2021/03/15 00:24:10;;;;;;;26.37;17.70;;;;;;;4.14;68.42;95778.69;1752336;81;21352;-82
2021/03/15 00:26:37;;;;;;;26.00;17.95;;;;;;;4.15;68.31;95775.16;1752344;82;21130;-83
2021/03/15 00:29:03;;;;;;;29.37;18.27;;;;;;;4.16;68.43;95775.48;1752228;82;21630;-83
2021/03/15 00:31:29;;;;;;;30.48;18.67;;;;;;;4.14;68.38;95772.27;1752460;82;21118;-83
2021/03/15 00:33:55;;;;;;;26.02;16.97;;;;;;;4.10;68.39;95772.73;1752369;81;21279;-82
2021/03/15 00:36:21;;;;;;;27.73;17.35;;;;;;;4.08;68.54;95771.61;1752325;82;21237;-82
2021/03/15 00:38:48;;;;;;;27.13;17.60;;;;;;;4.06;68.60;95767.56;1752512;82;21260;-82
2021/03/15 00:41:14;;;;;;;29.18;18.05;;;;;;;4.04;68.66;95767.72;1752475;82;21129;-83
2021/03/15 00:43:40;;;;;;;25.30;16.60;;;;;;;4.04;68.58;95769.01;1752468;82;21248;-82
2021/03/15 00:46:06;;;;;;;25.75;17.55;;;;;;;4.08;68.68;95770.33;1752402;82;21125;-82
2021/03/15 00:48:32;;;;;;;26.52;16.97;;;;;;;4.11;68.57;95769.20;1752221;82;21428;-82
2021/03/15 00:50:58;;;;;;;26.02;17.80;;;;;;;4.14;68.51;95766.31;1752490;82;21161;-82
2021/03/15 00:53:24;;;;;;;28.77;17.52;;;;;;;4.14;68.63;95761.98;1752563;82;21118;-83
2021/03/15 00:55:50;;;;;;;31.95;18.98;;;;;;;4.15;68.65;95763.59;1752732;82;21106;-82
2021/03/15 00:58:16;;;;;;;24.95;16.12;;;;;;;4.13;68.51;95759.08;1752555;82;21153;-83
2021/03/15 01:00:45;;;;;;;25.37;18.20;;;;;;;4.09;68.57;95755.70;1752382;82;21166;-82
2021/03/15 01:03:10;;;;;;;27.22;18.23;;;;;;;4.03;68.60;95751.97;1752666;82;21157;-83
2021/03/15 01:05:46;;;;;;;27.95;17.77;;;;;;;4.01;68.67;95755.66;1752369;82;21271;-82
2021/03/15 01:08:13;;;;;;;24.37;17.32;;;;;;;3.98;68.62;95755.50;1752403;82;21141;-83
2021/03/15 01:10:40;;;;;;;28.70;18.75;;;;;;;3.98;68.77;95750.36;1751957;82;21145;-83
2021/03/15 01:13:06;;;;;;;28.17;17.67;;;;;;;3.99;68.88;95749.88;1753244;81;21110;-83
2021/03/15 01:15:32;;;;;;;25.60;15.88;;;;;;;4.00;68.86;95750.20;1753035;82;21101;-83
2021/03/15 01:17:58;;;;;;;22.60;15.88;;;;;;;4.03;68.79;95742.17;1752956;82;21418;-83
2021/03/15 01:20:25;;;;;;;25.97;15.68;;;;;;;4.07;68.73;95745.58;1753156;81;21365;-83
2021/03/15 01:22:51;;;;;;;24.32;14.98;;;;;;;4.10;68.66;95742.69;1753359;81;21114;-83
2021/03/15 01:25:21;;;;;;;24.25;15.65;;;;;;;4.07;68.65;95736.58;1753060;81;21137;-83
2021/03/15 01:27:47;;;;;;;24.80;15.18;;;;;;;4.08;68.69;95732.25;1753003;82;21091;-82
2021/03/15 01:30:16;;;;;;;20.68;14.70;;;;;;;4.06;68.72;95729.00;1752885;82;21110;-83
2021/03/15 01:32:41;;;;;;;24.12;14.07;;;;;;;4.04;68.73;95728.36;1753010;82;21106;-83
2021/03/15 01:35:09;;;;;;;22.10;14.45;;;;;;;3.98;68.73;95722.09;1753039;82;21118;-83
2021/03/15 01:37:35;;;;;;;20.68;14.87;;;;;;;3.96;68.77;95721.44;1752977;82;21240;-83
2021/03/15 01:40:01;;;;;;;24.00;15.72;;;;;;;3.93;68.87;95719.67;1752959;81;21212;-83
2021/03/15 01:42:27;;;;;;;24.50;16.12;;;;;;;3.89;68.90;95717.39;1753068;82;21118;-83
2021/03/15 01:44:53;;;;;;;24.67;14.90;;;;;;;3.86;68.87;95715.63;1753044;82;21106;-83
2021/03/15 01:47:19;;;;;;;23.12;14.90;;;;;;;3.85;68.87;95711.44;1753050;82;21090;-83
2021/03/15 01:49:45;;;;;;;23.57;15.48;;;;;;;3.88;68.91;95710.64;1753091;82;21229;-83
2021/03/15 01:52:11;;;;;;;23.00;14.63;;;;;;;3.93;68.88;95704.25;1753103;81;21427;-83
2021/03/15 01:54:37;;;;;;;22.73;15.00;;;;;;;3.96;68.92;95703.93;1728016;82;21312;-83
2021/03/15 01:57:03;;;;;;;20.77;14.75;;;;;;;3.96;68.90;95709.07;1752989;82;21099;-83
2021/03/15 01:59:29;;;;;;;28.95;15.93;;;;;;;3.96;68.87;95700.88;1752871;82;21118;-83
2021/03/15 02:01:55;;;;;;;22.27;14.70;;;;;;;3.96;68.82;95701.36;1752947;82;21090;-83
2021/03/15 02:04:23;;;;;;;23.07;15.08;;;;;;;3.96;68.82;95702.64;1752970;82;21241;-83
2021/03/15 02:06:49;;;;;;;21.73;13.98;;;;;;;3.94;68.97;95703.28;1753079;82;21441;-82
2021/03/15 02:09:15;;;;;;;24.70;15.13;;;;;;;3.92;69.02;95703.45;1753009;82;21117;-83
2021/03/15 02:12:11;;;;;;;19.15;14.18;;;;;;;3.88;68.83;95702.13;1753134;82;21082;-83
2021/03/15 02:14:58;;;;;;;23.07;14.68;;;;;;;3.83;68.96;95697.95;1753035;82;21114;-83
2021/03/15 02:18:10;;;;;;;22.30;14.83;;;;;;;3.82;69.05;95704.05;1753077;82;21232;-83
2021/03/15 02:21:26;;;;;;;22.43;13.70;;;;;;;3.83;69.22;95699.23;1753541;81;21122;-83
2021/03/15 02:23:55;;;;;;;20.95;15.15;;;;;;;3.88;69.49;95705.50;1753049;82;21339;-83
2021/03/15 02:27:03;;;;;;;22.20;14.38;;;;;;;3.88;69.47;95699.08;1728044;82;21110;-83
2021/03/15 02:29:57;;;;;;;20.27;14.25;;;;;;;3.88;69.51;95700.36;1715288;82;21414;-83
2021/03/15 02:32:37;;;;;;;21.87;15.65;;;;;;;3.85;69.55;95701.16;1747195;82;21122;-83
2021/03/15 02:35:09;;;;;;;22.07;13.60;;;;;;;3.82;69.49;95697.63;1706825;82;21126;-82
2021/03/15 02:37:54;;;;;;;25.53;15.40;;;;;;;3.81;69.49;95702.45;1750298;82;21110;-83
2021/03/15 02:40:51;;;;;;;21.82;15.13;;;;;;;3.83;69.45;95703.09;1780858;79;22843;-83
2021/03/15 02:43:22;;;;;;;23.90;15.05;;;;;;;3.79;69.64;95706.45;1754462;82;21244;-83
2021/03/15 02:45:51;;;;;;;23.80;15.80;;;;;;;3.73;69.35;95705.77;1725391;82;21133;-82
2021/03/15 02:48:17;;;;;;;23.50;14.98;;;;;;;3.73;69.37;95706.26;1754951;82;21236;-83
2021/03/15 02:50:43;;;;;;;20.15;15.05;;;;;;;3.75;69.44;95706.45;1755050;82;21094;-83
2021/03/15 02:53:11;;;;;;;21.68;15.20;;;;;;;3.79;69.43;95710.80;1725574;82;21452;-83
2021/03/15 02:55:38;;;;;;;21.80;14.93;;;;;;;3.82;69.43;95713.84;1755075;82;21113;-83
2021/03/15 02:58:05;;;;;;;19.87;14.75;;;;;;;3.82;69.25;95715.61;1755255;81;21086;-83
2021/03/15 03:00:32;;;;;;;18.75;13.08;;;;;;;3.83;69.31;95722.36;1725764;82;21102;-83
2021/03/15 03:03:00;;;;;;;16.97;12.33;;;;;;;3.81;69.11;95728.14;1720826;82;21484;-83
2021/03/15 03:05:27;;;;;;;18.50;12.20;;;;;;;3.75;69.18;95718.49;1754986;81;21106;-83
2021/03/15 03:07:54;;;;;;;19.32;13.20;;;;;;;3.66;69.09;95727.13;1755080;82;21091;-82
2021/03/15 03:10:23;;;;;;;19.87;13.00;;;;;;;3.57;69.15;95724.98;1755078;82;21342;-83
2021/03/15 03:12:51;;;;;;;18.75;12.78;;;;;;;3.57;69.53;95724.50;1755224;82;21130;-83
2021/03/15 03:15:20;;;;;;;20.80;13.30;;;;;;;3.60;69.79;95724.22;1755147;82;21249;-83
2021/03/15 03:17:46;;;;;;;19.70;13.80;;;;;;;3.65;69.69;95725.03;1754961;81;21122;-83
2021/03/15 03:20:14;;;;;;;17.02;12.43;;;;;;;3.70;69.32;95727.94;1755146;82;21464;-83
2021/03/15 03:22:42;;;;;;;19.25;12.95;;;;;;;3.76;69.61;95736.80;1755135;81;21106;-82
2021/03/15 03:25:14;;;;;;;20.65;12.68;;;;;;;3.78;69.88;95733.12;1754996;82;21099;-83
2021/03/15 03:27:41;;;;;;;17.65;12.00;;;;;;;3.78;69.83;95735.69;1721346;82;21111;-83
2021/03/15 03:30:09;;;;;;;16.50;12.43;;;;;;;3.80;69.67;95729.91;1755146;81;21082;-83
2021/03/15 03:32:36;;;;;;;16.10;12.47;;;;;;;3.77;69.82;95725.56;1754932;82;21122;-83
2021/03/15 03:35:03;;;;;;;16.17;12.43;;;;;;;3.72;69.64;95733.72;1754987;82;21110;-83
2021/03/15 03:37:29;;;;;;;15.70;12.33;;;;;;;3.71;69.62;95737.25;1755053;82;21274;-83
2021/03/15 03:39:55;;;;;;;15.43;12.63;;;;;;;3.70;69.76;95731.78;1755448;81;21145;-83
2021/03/15 03:42:22;;;;;;;17.17;12.47;;;;;;;3.70;69.78;95733.55;1755742;81;21133;-83
2021/03/15 03:44:48;;;;;;;19.23;12.65;;;;;;;3.71;69.63;95726.97;1755815;82;21114;-83
2021/03/15 03:47:16;;;;;;;17.15;11.33;;;;;;;3.77;69.50;95737.12;1755793;81;21473;-83
2021/03/15 03:49:42;;;;;;;20.17;12.93;;;;;;;3.80;69.56;95734.24;1755651;82;21256;-83
2021/03/15 03:52:09;;;;;;;18.90;13.00;;;;;;;3.81;69.67;95735.85;1755289;82;21319;-83
2021/03/15 03:54:50;;;;;;;19.23;13.32;;;;;;;3.82;69.56;95734.41;1755193;82;21122;-83
2021/03/15 03:57:23;;;;;;;19.07;13.85;;;;;;;3.80;69.35;95726.05;1755561;82;21110;-83
2021/03/15 03:59:51;;;;;;;16.90;12.13;;;;;;;3.80;69.39;95729.91;1754173;82;21130;-83
2021/03/15 04:02:19;;;;;;;19.10;13.28;;;;;;;3.81;69.54;95730.71;1755421;81;21079;-83
2021/03/15 04:04:46;;;;;;;18.85;12.70;;;;;;;3.79;69.36;95732.16;1755411;81;21199;-83
2021/03/15 04:07:12;;;;;;;17.95;12.47;;;;;;;3.78;69.44;95732.31;1727453;82;21314;-83
2021/03/15 04:09:39;;;;;;;18.52;12.18;;;;;;;3.75;69.55;95726.20;1755166;81;21154;-83
2021/03/15 04:12:11;;;;;;;20.90;13.58;;;;;;;3.73;69.58;95730.66;1755304;81;21110;-83
2021/03/15 04:14:41;;;;;;;15.08;10.20;;;;;;;3.72;69.83;95729.86;1727718;82;21114;-83
2021/03/15 04:17:10;;;;;;;16.10;12.58;;;;;;;3.74;69.62;95733.56;1754408;82;21122;-83
2021/03/15 04:19:39;;;;;;;18.00;13.05;;;;;;;3.77;69.68;95733.27;1754595;82;21177;-83
2021/03/15 04:22:09;;;;;;;14.95;11.88;;;;;;;3.77;69.81;95728.94;1755209;81;21411;-83
2021/03/15 04:24:36;;;;;;;16.82;12.30;;;;;;;3.77;69.76;95729.42;1755173;82;21257;-83
2021/03/15 04:27:03;;;;;;;18.60;12.78;;;;;;;3.76;69.78;95730.38;1727564;82;21325;-83
2021/03/15 04:29:29;;;;;;;17.00;13.13;;;;;;;3.73;69.89;95731.47;1755216;82;21130;-83
2021/03/15 04:31:55;;;;;;;19.02;13.22;;;;;;;3.71;69.88;95738.53;1727541;82;21123;-83
2021/03/15 04:34:21;;;;;;;18.92;12.23;;;;;;;3.68;70.26;95735.48;1755411;81;21130;-83
2021/03/15 04:36:49;;;;;;;19.30;13.28;;;;;;;3.66;70.69;95731.78;1755258;82;21107;-83
2021/03/15 04:39:15;;;;;;;20.08;11.97;;;;;;;3.65;70.65;95735.79;1750701;82;21154;-83
2021/03/15 04:41:41;;;;;;;19.42;12.30;;;;;;;3.64;70.62;95738.84;1741248;82;21131;-83
2021/03/15 04:44:08;;;;;;;16.23;11.83;;;;;;;3.63;70.79;95734.66;1720153;82;21084;-83
2021/03/15 04:46:34;;;;;;;18.15;12.75;;;;;;;3.66;70.81;95734.34;1741163;82;21261;-83
2021/03/15 04:49:06;;;;;;;16.52;11.45;;;;;;;3.67;70.76;95734.67;1696502;82;21111;-83
2021/03/15 04:51:28;;;;;;;17.10;12.93;;;;;;;3.69;70.69;95733.23;1696415;82;21123;-83
2021/03/15 04:53:54;;;;;;;17.87;11.88;;;;;;;3.68;70.57;95726.48;1741188;82;21386;-83
2021/03/15 04:56:20;;;;;;;18.57;13.00;;;;;;;3.67;70.52;95730.81;1741137;82;21104;-83
2021/03/15 04:58:48;;;;;;;16.35;12.10;;;;;;;3.63;70.57;95727.44;1741085;82;21143;-83
2021/03/15 05:01:14;;;;;;;17.52;12.55;;;;;;;3.58;70.81;95727.91;1741165;82;21111;-83
2021/03/15 05:03:40;;;;;;;19.90;12.98;;;;;;;3.52;70.69;95735.73;1741310;82;21294;-83
2021/03/15 05:06:07;;;;;;;20.27;13.80;;;;;;;3.50;70.75;95724.00;1741347;82;21229;-83
2021/03/15 05:08:39;;;;;;;15.83;10.80;;;;;;;3.49;70.88;95729.62;1741208;81;21318;-83
2021/03/15 05:11:05;;;;;;;16.85;12.03;;;;;;;3.50;71.04;95731.70;1741171;81;21119;-83
2021/03/15 05:13:31;;;;;;;17.12;12.10;;;;;;;3.48;71.04;95722.88;1741279;82;21299;-83
2021/03/15 05:15:57;;;;;;;18.30;12.73;;;;;;;3.56;71.24;95731.89;1668909;82;21126;-83
2021/03/15 05:18:23;;;;;;;16.95;12.58;;;;;;;3.58;71.46;95727.91;1741228;82;21414;-83
2021/03/15 05:20:49;;;;;;;17.27;13.03;;;;;;;3.62;71.60;95729.20;1741238;82;21111;-83
2021/03/15 05:23:15;;;;;;;17.57;12.88;;;;;;;3.61;71.49;95728.88;1741108;82;21122;-83
2021/03/15 05:25:44;;;;;;;17.15;12.53;;;;;;;3.61;71.47;95731.45;1741111;82;21213;-83
2021/03/15 05:28:11;;;;;;;19.37;12.98;;;;;;;3.59;71.48;95731.60;1715586;82;21358;-82
2021/03/15 05:30:38;;;;;;;18.60;12.73;;;;;;;3.57;71.49;95734.78;1741002;82;21096;-83
2021/03/15 05:33:04;;;;;;;16.73;12.15;;;;;;;3.58;71.41;95733.05;1741123;82;21314;-83
2021/03/15 05:35:30;;;;;;;16.05;10.82;;;;;;;3.58;71.13;95730.00;1741173;82;21314;-83
2021/03/15 05:37:58;;;;;;;17.20;12.43;;;;;;;3.60;71.14;95731.92;1741162;82;21237;-83
2021/03/15 05:40:24;;;;;;;16.17;12.20;;;;;;;3.61;71.05;95729.69;1720409;82;21342;-83
2021/03/15 05:43:30;;;;;;;16.95;13.13;;;;;;;3.61;71.17;95730.97;1741229;81;21258;-83
2021/03/15 05:46:23;;;;;;;18.27;12.80;;;;;;;3.61;71.40;95730.16;1722316;82;21336;-82
2021/03/15 05:49:10;;;;;;;;;;;;;;;3.61;71.56;95732.25;1743678;82;21107;-83
2021/03/15 05:52:15;;;;;;;17.17;13.08;;;;;;;3.61;71.34;95733.53;1741048;82;20126;-83
2021/03/15 05:55:19;;;;;;;18.57;14.05;;;;;;;3.57;71.45;95737.34;1741194;82;21111;-83
2021/03/15 05:58:07;;;;;;;21.87;14.20;;;;;;;3.59;71.51;95733.37;1741197;81;21099;-83
2021/03/15 06:01:22;;;;;;;20.70;13.70;;;;;;;3.56;70.92;95737.02;1741082;82;21107;-83
2021/03/15 06:04:09;;;;;;;18.52;12.40;;;;;;;3.61;71.13;95734.02;1741204;82;21234;-83
2021/03/15 06:06:37;;;;;;;19.23;13.18;;;;;;;3.70;71.27;95732.27;1741074;82;21458;-83
2021/03/15 06:09:05;;;;;;;19.42;14.90;;;;;;;3.71;71.04;95739.02;1740726;82;21115;-83
2021/03/15 06:11:44;;;;;;;24.07;17.73;;;;;;;3.75;70.93;95740.34;1741063;82;21115;-83
2021/03/15 06:14:13;;;;;;;22.25;16.95;;;;;;;3.76;71.12;95742.75;1741227;82;21119;-83
2021/03/15 06:16:40;;;;;;;20.17;16.40;;;;;;;3.78;71.20;95737.45;1741208;82;21110;-83
2021/03/15 06:19:06;;;;;;;22.22;15.75;;;;;;;3.80;71.15;95735.53;1741080;82;21151;-83
2021/03/15 06:21:32;;;;;;;64.65;36.77;;;;;;;3.80;71.17;95737.62;1741169;82;21115;-83
2021/03/15 06:23:59;;;;;;;28.25;17.10;;;;;;;3.82;70.86;95738.27;1741078;82;21111;-83
2021/03/15 06:26:27;;;;;;;21.65;15.38;;;;;;;3.81;70.51;95740.99;1741141;82;21444;-83
2021/03/15 06:28:55;;;;;;;27.10;18.42;;;;;;;3.81;70.47;95749.98;1720131;82;21120;-83
2021/03/15 06:31:21;;;;;;;40.92;27.32;;;;;;;3.85;70.51;95746.14;1741251;82;21139;-83
2021/03/15 06:33:47;;;;;;;38.13;25.48;;;;;;;3.93;70.47;95750.03;1741146;82;21115;-83
2021/03/15 06:36:13;;;;;;;63.55;42.20;;;;;;;3.98;70.51;95746.51;1741181;82;21330;-83
2021/03/15 06:38:40;;;;;;;45.67;32.33;;;;;;;4.01;70.33;95746.19;1741076;82;21127;-82
2021/03/15 06:41:06;;;;;;;32.40;23.35;;;;;;;4.04;70.24;95740.73;1752980;81;21134;-83
2021/03/15 06:43:32;;;;;;;34.67;23.83;;;;;;;4.08;70.03;95743.33;1755228;82;21134;-83
2021/03/15 06:45:58;;;;;;;31.40;21.57;;;;;;;4.10;69.81;95740.13;1755342;82;21261;-83
2021/03/15 06:48:25;;;;;;;30.62;21.95;;;;;;;4.09;69.85;95746.70;1755261;82;21313;-83
2021/03/15 06:50:53;;;;;;;27.07;18.80;;;;;;;4.07;69.66;95742.20;1755144;81;21106;-83
2021/03/15 06:53:20;;;;;;;24.47;19.48;;;;;;;4.06;69.23;95747.80;1755216;82;21111;-83
2021/03/15 06:55:53;;;;;;;25.30;18.02;;;;;;;4.04;69.48;95745.87;1755284;82;21114;-83
2021/03/15 06:58:32;;;;;;;28.65;20.17;;;;;;;4.05;69.60;95746.19;1755036;82;21115;-83
2021/03/15 07:01:11;;;;;;;22.75;15.98;;;;;;;4.08;69.24;95748.95;1755158;82;21106;-83
2021/03/15 07:03:37;;;;;;;22.60;15.50;;;;;;;4.11;68.79;95746.87;1755079;82;21119;-83
2021/03/15 07:06:04;;;;;;;21.75;16.32;;;;;;;4.06;68.18;95751.66;1727689;82;21310;-83
2021/03/15 07:08:30;;;;;;;27.02;19.07;;;;;;;4.09;68.37;95753.94;1755180;82;21306;-83
2021/03/15 07:10:56;;;;;;;25.20;18.05;;;;;;;4.15;68.58;95753.30;1755047;82;21350;-83
2021/03/15 07:13:25;;;;;;;25.50;17.65;;;;;;;4.21;68.65;95751.38;1755109;82;21125;-83
2021/03/15 07:15:53;;;;;;;19.73;14.58;;;;;;;4.26;68.29;95756.55;1754777;82;21628;-83
2021/03/15 07:18:25;;;;;;;21.15;15.55;;;;;;;4.21;67.68;95756.52;1755216;81;21249;-83
2021/03/15 07:20:56;;;;;;;20.43;15.48;;;;;;;4.22;67.91;95755.55;1755252;81;21118;-83
2021/03/15 07:23:43;;;;;;;21.25;15.95;;;;;;;4.22;68.20;95753.46;1755213;81;21142;-83
2021/03/15 07:26:19;;;;;;;27.95;18.30;;;;;;;4.23;68.15;95757.67;1755132;82;21245;-83
2021/03/15 07:28:46;;;;;;;23.57;17.67;;;;;;;4.20;67.97;95758.77;1755257;81;21114;-83
2021/03/15 07:31:23;;;;;;;19.40;14.23;;;;;;;4.27;68.15;95749.16;1755218;81;21239;-83
2021/03/15 07:33:58;;;;;;;22.73;16.12;;;;;;;4.33;68.17;95749.31;1751924;82;21122;-83
2021/03/15 07:36:31;;;;;;;25.10;17.50;;;;;;;4.29;67.55;95752.37;1752647;82;21386;-83
2021/03/15 07:39:01;;;;;;;27.05;18.70;;;;;;;4.31;68.14;95753.02;1755372;81;21118;-83
2021/03/15 07:44:27;;;;;;;27.98;20.35;;;;;;;4.58;68.00;95750.16;1820618;79;22917;-83
2021/03/15 07:46:58;;;;;;;22.37;17.23;;;;;;;4.61;68.02;95753.70;1794007;80;21141;-82
2021/03/15 07:49:32;;;;;;;21.82;16.15;;;;;;;4.66;67.65;95750.16;1792783;80;21170;-83
2021/03/15 07:52:11;;;;;;;19.90;14.58;;;;;;;4.66;67.09;95748.86;1794013;80;21126;-83
2021/03/15 07:54:41;;;;;;;22.73;16.32;;;;;;;4.67;67.02;95756.91;1793349;80;21091;-83
2021/03/15 07:57:18;;;;;;;21.55;14.90;;;;;;;4.72;67.47;95755.16;1794507;80;21110;-83
2021/03/15 07:59:49;;;;;;;21.35;15.68;;;;;;;4.73;66.97;95756.28;1794536;80;21094;-83
2021/03/15 08:02:17;;;;;;;21.60;15.48;;;;;;;4.67;66.35;95753.53;1794788;80;21265;-83
2021/03/15 08:04:44;;;;;;;18.37;14.38;;;;;;;4.60;66.86;95764.16;1794538;80;21141;-83
2021/03/15 08:07:12;;;;;;;19.60;15.25;;;;;;;4.56;66.47;95761.59;1794523;80;21114;-83
2021/03/15 08:09:40;;;;;;;22.75;15.25;;;;;;;4.53;66.12;95757.53;1794621;80;21443;-83
2021/03/15 08:12:08;;;;;;;24.82;16.20;;;;;;;4.57;66.50;95757.56;1794529;80;21134;-83
2021/03/15 08:14:35;;;;;;;19.62;15.38;;;;;;;4.64;67.08;95756.43;1794437;80;21259;-83
2021/03/15 08:17:02;;;;;;;21.27;14.25;;;;;;;4.77;66.74;95752.90;1763649;80;21244;-83
2021/03/15 08:19:32;;;;;;;20.55;14.63;;;;;;;4.86;66.00;95754.49;1794563;80;21245;-83
2021/03/15 08:22:00;;;;;;;19.73;14.05;;;;;;;4.96;66.15;95744.84;1794508;80;21141;-83
2021/03/15 08:24:26;;;;;;;17.00;13.00;;;;;;;4.98;65.68;95745.48;1794851;80;21142;-83
2021/03/15 08:26:51;;;;;;;19.12;14.10;;;;;;;5.08;65.40;95749.19;1794565;80;21078;-83
2021/03/15 08:29:17;;;;;;;17.85;12.88;;;;;;;5.04;64.92;95744.02;1794439;80;21209;-83
2021/03/15 08:31:46;;;;;;;19.25;13.78;;;;;;;5.09;65.15;95746.93;1794561;80;21115;-83
2021/03/15 08:34:13;;;;;;;18.07;11.28;;;;;;;5.09;65.24;95741.78;1764144;80;21118;-83
2021/03/15 08:36:43;;;;;;;20.65;14.33;;;;;;;5.09;64.75;95744.35;1794514;80;21116;-83
2021/03/15 08:39:33;;;;;;;22.65;16.45;;;;;;;5.08;65.19;95743.55;1794757;80;21105;-83
2021/03/15 08:42:22;;;;;;;21.65;15.28;;;;;;;5.11;65.19;95743.70;1794092;80;21138;-82
2021/03/15 08:44:49;;;;;;;18.75;14.78;;;;;;;5.18;65.37;95743.84;1758929;81;21333;-83
2021/03/15 08:47:43;;;;;;;20.80;14.33;;;;;;;5.27;65.43;95743.67;1781027;81;21138;-83
2021/03/15 08:50:37;;;;;;;20.20;15.55;;;;;;;5.31;64.75;95737.70;1780363;80;21260;-83
2021/03/15 08:53:03;;;;;;;18.65;13.85;;;;;;;5.30;64.21;95742.54;1781187;81;21119;-83
2021/03/15 08:55:48;;;;;;;22.85;16.12;;;;;;;5.34;64.41;95734.80;1780479;80;21114;-83
2021/03/15 08:58:41;;;;;;;23.20;15.85;;;;;;;5.39;64.71;95737.22;1780433;81;21130;-83
2021/03/15 09:01:12;;;;;;;51.15;29.95;;;;;;;5.53;64.78;95732.33;1780399;81;21302;-83
2021/03/15 09:03:57;;;;;;;29.45;20.92;;;;;;;5.66;65.29;95732.12;1780354;81;21144;-83
2021/03/15 09:06:37;;;;;;;24.90;16.77;;;;;;;5.74;64.80;95727.44;1780433;81;21244;-83
2021/03/15 09:09:10;;;;;;;19.82;14.85;;;;;;;5.74;64.29;95724.86;1779173;80;21357;-83
2021/03/15 09:11:45;;;;;;;18.90;13.05;;;;;;;5.75;64.36;95726.46;1780410;81;21103;-83
2021/03/15 09:14:22;;;;;;;20.20;15.03;;;;;;;5.74;63.71;95718.41;1780417;81;21258;-83
2021/03/15 09:16:57;;;;;;;20.45;13.05;;;;;;;5.76;63.95;95717.75;1780384;81;21095;-83
2021/03/15 09:19:32;;;;;;;19.90;15.18;;;;;;;5.72;62.69;95718.58;1780458;81;21131;-83
2021/03/15 09:22:17;;;;;;;16.67;13.03;;;;;;;5.59;63.29;95714.92;1780457;81;21154;-83
2021/03/15 09:25:00;;;;;;;17.90;11.88;;;;;;;5.51;63.29;95711.88;1780487;81;21103;-83
2021/03/15 09:27:33;;;;;;;18.85;14.38;;;;;;;5.45;63.50;95715.61;1780396;81;21217;-83
2021/03/15 09:30:04;;;;;;;;;;;;;;;5.39;63.92;95718.37;1783014;81;21116;-83
2021/03/15 09:32:35;;;;;;;20.37;14.07;;;;;;;5.35;63.91;95714.02;1779885;81;20124;-83
2021/03/15 09:35:22;;;;;;;15.25;10.95;;;;;;;5.34;64.09;95719.34;1779890;81;21253;-83
2021/03/15 09:37:56;;;;;;;15.05;11.10;;;;;;;5.31;63.96;95716.61;1779736;81;21123;-83
2021/03/15 09:40:26;;;;;;;16.60;10.23;;;;;;;5.20;63.52;95711.80;1779705;81;21229;-82
2021/03/15 09:42:52;;;;;;;12.65;10.00;;;;;;;5.09;62.94;95712.97;1781447;80;21171;-83
2021/03/15 09:45:25;;;;;;;16.77;11.28;;;;;;;5.05;63.25;95714.27;1785544;80;21123;-83
2021/03/15 09:47:51;;;;;;;13.38;10.48;;;;;;;5.10;63.37;95713.77;1786272;80;21508;-83
2021/03/15 09:50:26;;;;;;;14.55;10.30;;;;;;;5.28;63.50;95709.70;1786113;80;21252;-83
2021/03/15 09:52:52;;;;;;;14.38;11.05;;;;;;;5.49;63.58;95703.52;1786146;80;21114;-83
2021/03/15 09:55:18;;;;;;;11.60;9.18;;;;;;;5.72;63.62;95699.73;1757806;80;21138;-83
2021/03/15 09:57:44;;;;;;;17.42;12.45;;;;;;;5.92;63.01;95701.44;1786149;80;21126;-83
2021/03/15 10:00:13;;;;;;;18.45;12.50;;;;;;;6.00;62.22;95697.51;1786117;80;21256;-83
2021/03/15 10:02:40;;;;;;;15.83;11.03;;;;;;;6.15;62.31;95695.81;1785601;80;21472;-83
2021/03/15 10:05:07;;;;;;;16.97;11.68;;;;;;;6.36;62.79;95697.80;1785643;80;21249;-83
2021/03/15 10:07:39;;;;;;;15.93;11.45;;;;;;;6.65;62.31;95693.20;1785511;80;21256;-83
2021/03/15 10:10:11;;;;;;;15.15;10.78;;;;;;;6.78;61.57;95687.45;1786398;80;21122;-83
2021/03/15 10:12:37;;;;;;;;;;;;;;;6.77;61.21;95684.06;1788422;80;21146;-83
2021/03/15 10:15:08;;;;;;;14.13;10.88;;;;;;;6.71;61.35;95689.14;1786138;80;20120;-83
2021/03/15 10:17:34;;;;;;;15.85;12.05;;;;;;;6.60;61.36;95689.85;1785363;80;21138;-83
2021/03/15 10:20:00;;;;;;;17.25;13.55;;;;;;;6.51;60.85;95687.53;1786276;80;21110;-83
2021/03/15 10:22:26;;;;;;;42.38;32.67;;;;;;;6.40;60.76;95682.27;1786098;80;21495;-83
2021/03/15 10:24:52;;;;;;;16.73;12.55;;;;;;;6.32;61.31;95684.90;1786243;80;21237;-83
2021/03/15 10:27:25;;;;;;;16.25;12.90;;;;;;;6.21;60.79;95681.45;1786006;80;21157;-83
2021/03/15 10:29:53;;;;;;;18.10;12.53;;;;;;;6.13;60.84;95683.58;1785429;80;21168;-83
2021/03/15 10:32:21;;;;;;;20.80;13.85;;;;;;;6.03;60.38;95684.30;1786165;80;21448;-84
2021/03/15 10:34:59;;;;;;;13.70;11.18;;;;;;;5.88;60.54;95683.39;1786096;80;21090;-83
2021/03/15 10:37:26;;;;;;;21.00;14.00;;;;;;;5.76;60.65;95685.53;1786304;80;21138;-83
2021/03/15 10:39:53;;;;;;;15.70;12.07;;;;;;;5.69;60.93;95680.71;1786104;80;21114;-83
2021/03/15 10:42:20;;;;;;;20.70;14.10;;;;;;;5.62;60.67;95675.44;1786185;80;21150;-83
2021/03/15 10:44:47;;;;;;;20.70;14.98;;;;;;;5.58;60.63;95675.95;1786160;80;21110;-83
2021/03/15 10:47:13;;;;;;;20.62;15.08;;;;;;;5.54;60.46;95674.69;1786121;80;21225;-83
2021/03/15 10:49:40;;;;;;;19.55;13.55;;;;;;;5.53;60.54;95673.05;1786056;80;21122;-83
2021/03/15 10:52:06;;;;;;;22.82;15.58;;;;;;;5.52;60.73;95664.52;1786336;80;21140;-83
2021/03/15 10:54:37;;;;;;;24.92;18.40;;;;;;;5.55;60.93;95671.14;1786071;80;21318;-83
2021/03/15 10:57:17;;;;;;;25.32;18.90;;;;;;;5.58;61.15;95668.22;1786111;80;21118;-83
2021/03/15 10:59:44;;;;;;;23.98;16.93;;;;;;;5.62;61.87;95668.20;1786065;80;21389;-83
2021/03/15 11:02:10;;;;;;;30.30;18.30;;;;;;;5.65;61.53;95671.23;1786072;80;21253;-83
2021/03/15 11:04:40;;;;;;;21.70;16.15;;;;;;;5.69;61.25;95668.66;1786066;80;21130;-83
2021/03/15 11:07:30;;;;;;;18.82;15.08;;;;;;;5.70;61.39;95656.09;1786075;80;21106;-83
2021/03/15 11:10:07;;;;;;;23.42;17.62;;;;;;;5.78;61.39;95660.87;1786075;80;21126;-83
2021/03/15 11:12:39;;;;;;;26.25;18.42;;;;;;;5.85;61.27;95651.47;1786196;80;21071;-83
2021/03/15 11:15:16;;;;;;;;;;;;;;;5.92;61.42;95651.95;1787812;80;21102;-83
2021/03/15 11:17:45;;;;;;;23.07;17.12;;;;;;;5.95;60.44;95654.19;1786105;80;20132;-83
2021/03/15 11:20:11;;;;;;;22.93;15.63;;;;;;;5.98;60.68;95648.69;1781789;80;21443;-83
2021/03/15 11:22:47;;;;;;;22.82;15.58;;;;;;;6.01;60.08;95639.31;1786249;80;21147;-83
2021/03/15 11:25:14;;;;;;;23.38;16.07;;;;;;;6.06;60.27;95641.89;1786072;80;21122;-83
2021/03/15 11:27:39;;;;;;;22.10;16.27;;;;;;;6.09;59.87;95637.19;1786065;80;21325;-83
2021/03/15 11:30:22;;;;;;;21.05;16.32;;;;;;;6.15;59.67;95635.20;1786076;80;21106;-83
2021/03/15 11:32:47;;;;;;;26.17;16.62;;;;;;;6.21;59.54;95631.14;1785447;80;21090;-83
2021/03/15 11:35:21;;;;;;;26.10;18.40;;;;;;;6.27;59.15;95623.50;1786118;80;21220;-83
2021/03/15 11:37:48;;;;;;;19.42;14.68;;;;;;;6.33;59.25;95617.64;1786057;80;21327;-83
2021/03/15 11:40:26;;;;;;;20.20;15.00;;;;;;;6.39;58.66;95611.48;1786125;80;21373;-83
2021/03/15 11:42:54;;;;;;;18.30;14.38;;;;;;;6.32;58.71;95609.59;1785974;80;21115;-83
2021/03/15 11:45:21;;;;;;;18.92;14.25;;;;;;;6.29;57.96;95607.36;1780263;80;21107;-83
2021/03/15 11:47:47;;;;;;;20.00;14.87;;;;;;;6.29;58.54;95606.56;1780272;81;21087;-83